Time,TemperatureF,DewpointF,PressureIn,WindDirection,WindDirectionDegrees,WindSpeedMPH,WindSpeedGustMPH,Humidity,HourlyPrecipIn,Conditions,Clouds,dailyrainin,SolarRadiationWatts/m^2,SoftwareType,DateUTC
2013-06-02 00:03:00,67.0,-99.9,-100.00,ESE,123,0.0,2.0,88,0.00,,,0.00,0.000000,,2013-06-02 04:03:00,
2013-06-02 00:10:00,72.0,70.0,-100.00,West,259,5.0,11.0,92,0.00,,,0.00,0.000000,,2013-06-02 04:10:00,
2013-06-02 00:33:00,72.0,70.0,-100.00,West,259,5.0,11.0,92,0.00,,,0.00,0.000000,,2013-06-02 04:33:00,
2013-06-02 00:42:00,72.0,70.0,-100.00,West,259,5.0,11.0,92,0.00,,,0.00,0.000000,,2013-06-02 04:42:00,
2013-06-02 00:53:00,72.0,70.0,-100.00,West,259,5.0,11.0,92,0.00,,,0.00,0.000000,,2013-06-02 04:53:00,
2013-06-02 01:03:00,72.0,70.0,-100.00,West,259,5.0,11.0,92,0.00,,,0.00,0.000000,,2013-06-02 05:03:00,
2013-06-02 01:10:00,70.0,62.0,-100.00,West,261,2.0,7.0,76,0.00,,,0.00,0.000000,,2013-06-02 05:10:00,
2013-06-02 01:32:00,70.0,62.0,-100.00,West,261,2.0,7.0,76,0.00,,,0.00,0.000000,,2013-06-02 05:32:00,
2013-06-02 01:42:00,70.0,62.0,-100.00,West,261,2.0,7.0,76,0.00,,,0.00,0.000000,,2013-06-02 05:42:00,
2013-06-02 01:52:00,70.0,62.0,-100.00,West,261,2.0,7.0,76,0.00,,,0.00,0.000000,,2013-06-02 05:52:00,
2013-06-02 02:01:00,70.0,62.0,-100.00,West,261,2.0,7.0,76,0.00,,,0.00,0.000000,,2013-06-02 06:01:00,
2013-06-02 02:10:00,67.0,64.0,-100.00,SSW,209,2.0,5.0,89,0.02,,,0.02,0.000000,,2013-06-02 06:10:00,
2013-06-02 02:32:00,67.0,64.0,-100.00,SSW,209,2.0,5.0,89,0.02,,,0.02,0.000000,,2013-06-02 06:32:00,
2013-06-02 02:42:00,67.0,64.0,-100.00,SSW,209,2.0,5.0,89,0.02,,,0.02,0.000000,,2013-06-02 06:42:00,
2013-06-02 02:52:00,67.0,64.0,-100.00,SSW,209,2.0,5.0,89,0.02,,,0.02,0.000000,,2013-06-02 06:52:00,
2013-06-02 03:02:00,67.0,64.0,-100.00,SSW,209,2.0,5.0,89,0.02,,,0.02,0.000000,,2013-06-02 07:02:00,
2013-06-02 03:10:00,65.0,65.0,-100.00,East,92,0.0,2.0,99,0.00,,,0.02,0.000000,,2013-06-02 07:10:00,
2013-06-02 03:32:00,65.0,65.0,-100.00,East,92,0.0,2.0,99,0.00,,,0.02,0.000000,,2013-06-02 07:32:00,
2013-06-02 03:42:00,65.0,65.0,-100.00,East,92,0.0,2.0,99,0.00,,,0.02,0.000000,,2013-06-02 07:42:00,
2013-06-02 03:52:00,65.0,65.0,-100.00,East,92,0.0,2.0,99,0.00,,,0.02,0.000000,,2013-06-02 07:52:00,
2013-06-02 04:02:00,65.0,65.0,-100.00,East,92,0.0,2.0,99,0.00,,,0.02,0.000000,,2013-06-02 08:02:00,
2013-06-02 04:10:00,65.0,65.0,-100.00,NW,315,1.0,2.0,100,0.00,,,0.02,0.000000,,2013-06-02 08:10:00,
2013-06-02 04:32:00,65.0,65.0,-100.00,NW,315,1.0,2.0,100,0.00,,,0.02,0.000000,,2013-06-02 08:32:00,
2013-06-02 04:42:00,65.0,65.0,-100.00,NW,315,1.0,2.0,100,0.00,,,0.02,0.000000,,2013-06-02 08:42:00,
2013-06-02 04:52:00,65.0,65.0,-100.00,NW,315,1.0,2.0,100,0.00,,,0.02,0.000000,,2013-06-02 08:52:00,
2013-06-02 05:01:00,65.0,65.0,-100.00,NW,315,1.0,2.0,100,0.00,,,0.02,0.000000,,2013-06-02 09:01:00,
2013-06-02 05:10:00,65.0,65.0,-100.00,NE,39,1.0,4.0,100,0.00,,,0.02,0.000000,,2013-06-02 09:10:00,
2013-06-02 05:33:00,65.0,65.0,-100.00,NE,39,1.0,4.0,100,0.00,,,0.02,0.000000,,2013-06-02 09:33:00,
2013-06-02 05:43:00,65.0,65.0,-100.00,NE,39,1.0,4.0,100,0.00,,,0.02,0.000000,,2013-06-02 09:43:00,
2013-06-02 05:53:00,65.0,65.0,-100.00,NE,39,1.0,4.0,100,0.00,,,0.02,0.000000,,2013-06-02 09:53:00,
2013-06-02 06:02:00,65.0,65.0,-100.00,NE,39,1.0,4.0,100,0.00,,,0.02,0.000000,,2013-06-02 10:02:00,
2013-06-02 06:10:00,64.0,64.0,-100.00,East,98,1.0,2.0,100,0.00,,,0.02,22.000000,,2013-06-02 10:10:00,
2013-06-02 06:33:00,64.0,64.0,-100.00,East,98,1.0,2.0,100,0.00,,,0.02,22.000000,,2013-06-02 10:33:00,
2013-06-02 06:42:00,64.0,64.0,-100.00,East,98,1.0,2.0,100,0.00,,,0.02,22.000000,,2013-06-02 10:42:00,
2013-06-02 06:52:00,64.0,64.0,-100.00,East,98,1.0,2.0,100,0.00,,,0.02,22.000000,,2013-06-02 10:52:00,
2013-06-02 07:02:00,64.0,64.0,-100.00,East,98,1.0,2.0,100,0.00,,,0.02,22.000000,,2013-06-02 11:02:00,
2013-06-02 07:10:00,65.0,65.0,-100.00,NNW,347,0.0,0.0,100,0.00,,,0.02,44.000000,,2013-06-02 11:10:00,
2013-06-02 07:32:00,65.0,65.0,-100.00,NNW,347,0.0,0.0,100,0.00,,,0.02,44.000000,,2013-06-02 11:32:00,
2013-06-02 07:42:00,65.0,65.0,-100.00,NNW,347,0.0,0.0,100,0.00,,,0.02,44.000000,,2013-06-02 11:42:00,
2013-06-02 07:52:00,65.0,65.0,-100.00,NNW,347,0.0,0.0,100,0.00,,,0.02,44.000000,,2013-06-02 11:52:00,
2013-06-02 08:02:00,65.0,65.0,-100.00,NNW,347,0.0,0.0,100,0.00,,,0.02,44.000000,,2013-06-02 12:02:00,
2013-06-02 08:10:00,74.0,71.0,-100.00,West,270,1.0,2.0,91,0.00,,,0.02,209.000000,,2013-06-02 12:10:00,
2013-06-02 08:32:00,74.0,71.0,-100.00,West,270,1.0,2.0,91,0.00,,,0.02,209.000000,,2013-06-02 12:32:00,
2013-06-02 08:42:00,74.0,71.0,-100.00,West,270,1.0,2.0,91,0.00,,,0.02,209.000000,,2013-06-02 12:42:00,
2013-06-02 08:53:00,74.0,71.0,-100.00,West,270,1.0,2.0,91,0.00,,,0.02,209.000000,,2013-06-02 12:53:00,
2013-06-02 09:01:00,74.0,71.0,-100.00,West,270,1.0,2.0,91,0.00,,,0.02,209.000000,,2013-06-02 13:01:00,
2013-06-02 09:10:00,79.0,69.0,-100.00,SSW,196,1.0,4.0,72,0.00,,,0.02,230.000000,,2013-06-02 13:10:00,
2013-06-02 09:32:00,79.0,69.0,-100.00,SSW,196,1.0,4.0,72,0.00,,,0.02,230.000000,,2013-06-02 13:32:00,
2013-06-02 09:42:00,79.0,69.0,-100.00,SSW,196,1.0,4.0,72,0.00,,,0.02,230.000000,,2013-06-02 13:42:00,
2013-06-02 09:52:00,79.0,69.0,-100.00,SSW,196,1.0,4.0,72,0.00,,,0.02,230.000000,,2013-06-02 13:52:00,
2013-06-02 10:02:00,79.0,69.0,-100.00,SSW,196,1.0,4.0,72,0.00,,,0.02,230.000000,,2013-06-02 14:02:00,
2013-06-02 10:10:00,84.0,70.0,-100.00,WSW,255,4.0,8.0,62,0.00,,,0.02,579.000000,,2013-06-02 14:10:00,
2013-06-02 10:32:00,84.0,70.0,-100.00,WSW,255,4.0,8.0,62,0.00,,,0.02,579.000000,,2013-06-02 14:32:00,
2013-06-02 10:42:00,84.0,70.0,-100.00,WSW,255,4.0,8.0,62,0.00,,,0.02,579.000000,,2013-06-02 14:42:00,
2013-06-02 10:52:00,84.0,70.0,-100.00,WSW,255,4.0,8.0,62,0.00,,,0.02,579.000000,,2013-06-02 14:52:00,
2013-06-02 11:01:00,84.0,70.0,-100.00,WSW,255,4.0,8.0,62,0.00,,,0.02,579.000000,,2013-06-02 15:01:00,
2013-06-02 11:10:00,88.0,68.0,-100.00,WSW,256,5.0,11.0,51,0.00,,,0.02,702.000000,,2013-06-02 15:10:00,
2013-06-02 11:33:00,88.0,68.0,-100.00,WSW,256,5.0,11.0,51,0.00,,,0.02,702.000000,,2013-06-02 15:33:00,
2013-06-02 11:43:00,88.0,68.0,-100.00,WSW,256,5.0,11.0,51,0.00,,,0.02,702.000000,,2013-06-02 15:43:00,
2013-06-02 11:53:00,88.0,68.0,-100.00,WSW,256,5.0,11.0,51,0.00,,,0.02,702.000000,,2013-06-02 15:53:00,
2013-06-02 12:03:00,88.0,68.0,-100.00,WSW,256,5.0,11.0,51,0.00,,,0.02,702.000000,,2013-06-02 16:03:00,
2013-06-02 12:10:00,84.0,62.0,-100.00,West,268,6.0,15.0,47,0.00,,,0.02,412.000000,,2013-06-02 16:10:00,
2013-06-02 12:33:00,84.0,62.0,-100.00,West,268,6.0,15.0,47,0.00,,,0.02,412.000000,,2013-06-02 16:33:00,
2013-06-02 12:42:00,84.0,62.0,-100.00,West,268,6.0,15.0,47,0.00,,,0.02,412.000000,,2013-06-02 16:42:00,
2013-06-02 12:53:00,84.0,62.0,-100.00,West,268,6.0,15.0,47,0.00,,,0.02,412.000000,,2013-06-02 16:53:00,
2013-06-02 13:02:00,84.0,62.0,-100.00,West,268,6.0,15.0,47,0.00,,,0.02,412.000000,,2013-06-02 17:02:00,
2013-06-02 13:10:00,87.0,69.0,-100.00,West,263,5.0,14.0,55,0.00,,,0.02,555.000000,,2013-06-02 17:10:00,
2013-06-02 13:33:00,87.0,69.0,-100.00,West,263,5.0,14.0,55,0.00,,,0.02,555.000000,,2013-06-02 17:33:00,
2013-06-02 13:42:00,87.0,69.0,-100.00,West,263,5.0,14.0,55,0.00,,,0.02,555.000000,,2013-06-02 17:42:00,
2013-06-02 13:52:00,87.0,69.0,-100.00,West,263,5.0,14.0,55,0.00,,,0.02,555.000000,,2013-06-02 17:52:00,
2013-06-02 14:02:00,87.0,69.0,-100.00,West,263,5.0,14.0,55,0.00,,,0.02,555.000000,,2013-06-02 18:02:00,
2013-06-02 14:10:00,87.0,65.0,-100.00,WSW,258,6.0,13.0,48,0.00,,,0.02,579.000000,,2013-06-02 18:10:00,
2013-06-02 14:32:00,87.0,65.0,-100.00,WSW,258,6.0,13.0,48,0.00,,,0.02,579.000000,,2013-06-02 18:32:00,
2013-06-02 14:42:00,87.0,65.0,-100.00,WSW,258,6.0,13.0,48,0.00,,,0.02,579.000000,,2013-06-02 18:42:00,
2013-06-02 14:52:00,87.0,65.0,-100.00,WSW,258,6.0,13.0,48,0.00,,,0.02,579.000000,,2013-06-02 18:52:00,
2013-06-02 15:01:00,87.0,65.0,-100.00,WSW,258,6.0,13.0,48,0.00,,,0.02,579.000000,,2013-06-02 19:01:00,
2013-06-02 16:10:00,67.0,-29.0,-100.00,SE,142,2.0,30.0,0,0.21,,,0.23,58.000000,,2013-06-02 20:10:00,
2013-06-02 16:32:00,67.0,-29.0,-100.00,SE,142,2.0,30.0,0,0.21,,,0.23,58.000000,,2013-06-02 20:32:00,
2013-06-02 16:42:00,67.0,-29.0,-100.00,SE,142,2.0,30.0,0,0.21,,,0.23,58.000000,,2013-06-02 20:42:00,
2013-06-02 16:52:00,67.0,-29.0,-100.00,SE,142,2.0,30.0,0,0.21,,,0.23,58.000000,,2013-06-02 20:52:00,
2013-06-02 17:02:00,67.0,-29.0,-100.00,SE,142,2.0,30.0,0,0.21,,,0.23,58.000000,,2013-06-02 21:02:00,
2013-06-02 17:10:00,66.0,-29.0,-100.00,ENE,66,1.0,7.0,0,0.02,,,0.25,5.000000,,2013-06-02 21:10:00,
2013-06-02 17:33:00,66.0,-29.0,-100.00,ENE,66,1.0,7.0,0,0.02,,,0.25,5.000000,,2013-06-02 21:33:00,
2013-06-02 17:43:00,66.0,-29.0,-100.00,ENE,66,1.0,7.0,0,0.02,,,0.25,5.000000,,2013-06-02 21:43:00,
2013-06-02 17:53:00,66.0,-29.0,-100.00,ENE,66,1.0,7.0,0,0.02,,,0.25,5.000000,,2013-06-02 21:53:00,
2013-06-02 18:03:00,66.0,-29.0,-100.00,ENE,66,1.0,7.0,0,0.02,,,0.25,5.000000,,2013-06-02 22:03:00,
2013-06-02 18:10:00,66.0,-29.0,-100.00,ENE,76,1.0,4.0,0,0.04,,,0.29,12.000000,,2013-06-02 22:10:00,
2013-06-02 18:33:00,66.0,-29.0,-100.00,ENE,76,1.0,4.0,0,0.04,,,0.29,12.000000,,2013-06-02 22:33:00,
2013-06-02 18:42:00,66.0,-29.0,-100.00,ENE,76,1.0,4.0,0,0.04,,,0.29,12.000000,,2013-06-02 22:42:00,
2013-06-02 18:53:00,66.0,-29.0,-100.00,ENE,76,1.0,4.0,0,0.04,,,0.29,12.000000,,2013-06-02 22:53:00,
2013-06-02 19:02:00,66.0,-29.0,-100.00,ENE,76,1.0,4.0,0,0.04,,,0.29,12.000000,,2013-06-02 23:02:00,
2013-06-02 19:10:00,66.0,-29.0,-100.00,ENE,61,2.0,5.0,0,0.06,,,0.35,20.000000,,2013-06-02 23:10:00,
2013-06-02 19:32:00,66.0,-29.0,-100.00,ENE,61,2.0,5.0,0,0.06,,,0.35,20.000000,,2013-06-02 23:32:00,
2013-06-02 19:43:00,66.0,-29.0,-100.00,ENE,61,2.0,5.0,0,0.06,,,0.35,20.000000,,2013-06-02 23:43:00,
2013-06-02 19:53:00,66.0,-29.0,-100.00,ENE,61,2.0,5.0,0,0.06,,,0.35,20.000000,,2013-06-02 23:53:00,
2013-06-02 20:01:00,66.0,-29.0,-100.00,ENE,61,2.0,5.0,0,0.06,,,0.35,20.000000,,2013-06-03 00:01:00,
2013-06-02 21:10:00,65.0,-38.0,-100.00,East,95,2.0,5.0,1,-99.99,,,0.35,6.000000,,2013-06-03 01:10:00,
2013-06-02 21:32:00,65.0,-38.0,-100.00,East,95,2.0,5.0,1,-99.99,,,0.35,6.000000,,2013-06-03 01:32:00,
2013-06-02 21:42:00,65.0,-38.0,-100.00,East,95,2.0,5.0,1,-99.99,,,0.35,6.000000,,2013-06-03 01:42:00,
2013-06-02 21:52:00,65.0,-38.0,-100.00,East,95,2.0,5.0,1,-99.99,,,0.35,6.000000,,2013-06-03 01:52:00,
2013-06-02 22:02:00,65.0,-38.0,-100.00,East,95,2.0,5.0,1,-99.99,,,0.35,6.000000,,2013-06-03 02:02:00,
2013-06-02 23:10:00,63.0,-31.0,-100.00,East,98,0.0,2.0,0,0.01,,,0.36,0.000000,,2013-06-03 03:10:00,
2013-06-02 23:33:00,63.0,-31.0,-100.00,East,98,0.0,2.0,0,0.01,,,0.36,0.000000,,2013-06-03 03:33:00,
2013-06-02 23:43:00,63.0,-31.0,-100.00,East,98,0.0,2.0,0,0.01,,,0.36,0.000000,,2013-06-03 03:43:00,
2013-06-02 23:53:00,63.0,-31.0,-100.00,East,98,0.0,2.0,0,0.01,,,0.36,0.000000,,2013-06-03 03:53:00,